Time;durP1;ratioP1;P1;durP2;ratioP2;P2;SDS_P1;SDS_P2;PMS_P1;PMS_P2;Temp;Humidity;BMP_temperature;BMP_pressure;BME280_temperature;BME280_humidity;BME280_pressure;Samples;Min_cycle;Max_cycle;Signal;HPM_P1;HPM_P2
2023/05/10 00:01:16;;;;;;;4.80;1.30;;;;;;;7.14;100.00;100847.57;105044;1259;73725;-54
2023/05/10 00:03:44;;;;;;;2.80;1.30;;;;;;;7.15;100.00;100844.66;105429;1263;60653;-54
2023/05/10 00:06:11;;;;;;;5.20;1.30;;;;;;;7.16;100.00;100843.23;105013;1262;62830;-54
2023/05/10 00:08:39;;;;;;;4.60;1.40;;;;;;;7.17;100.00;100843.14;105078;1257;76184;-54
2023/05/10 00:11:06;;;;;;;2.50;1.10;;;;;;;7.17;100.00;100843.46;105017;1259;69350;-54
2023/05/10 00:13:34;;;;;;;2.50;1.20;;;;;;;7.18;100.00;100842.52;104865;1257;73106;-57
2023/05/10 00:16:01;;;;;;;2.30;1.10;;;;;;;7.18;100.00;100842.69;105026;1262;60845;-54
2023/05/10 00:18:28;;;;;;;2.00;0.90;;;;;;;7.17;100.00;100843.11;105014;1257;62365;-53
2023/05/10 00:20:55;;;;;;;3.00;1.00;;;;;;;7.16;100.00;100842.02;104917;1263;76387;-54
2023/05/10 00:23:23;;;;;;;3.50;1.00;;;;;;;7.14;100.00;100842.70;104936;1263;69614;-54
2023/05/10 00:25:50;;;;;;;3.10;0.90;;;;;;;7.14;100.00;100843.06;104638;1264;75189;-53
2023/05/10 00:28:17;;;;;;;3.00;1.00;;;;;;;7.14;100.00;100838.55;104951;1262;61753;-54
2023/05/10 00:30:44;;;;;;;2.50;1.10;;;;;;;7.15;100.00;100841.09;104843;1263;62745;-55
2023/05/10 00:33:12;;;;;;;3.30;1.50;;;;;;;7.15;100.00;100840.54;105537;1264;76078;-58
2023/05/10 00:35:39;;;;;;;2.90;0.90;;;;;;;7.14;100.00;100841.67;104988;1263;69248;-54
2023/05/10 00:38:06;;;;;;;5.20;1.10;;;;;;;7.13;100.00;100842.17;104723;1260;73700;-55
2023/05/10 00:40:35;;;;;;;2.20;1.10;;;;;;;7.13;100.00;100840.95;105099;1262;60936;-53
2023/05/10 00:43:04;;;;;;;4.20;1.10;;;;;;;7.11;100.00;100842.18;104830;1256;62593;-55
2023/05/10 00:45:32;;;;;;;2.80;1.10;;;;;;;7.09;100.00;100838.02;105113;1263;76726;-58
2023/05/10 00:48:02;;;;;;;4.80;1.30;;;;;;;7.07;100.00;100838.85;104803;1261;68548;-54
2023/05/10 00:50:30;;;;;;;2.00;0.90;;;;;;;7.06;100.00;100833.91;104960;1263;74181;-54
2023/05/10 00:52:58;;;;;;;2.20;1.00;;;;;;;7.07;100.00;100836.83;104936;1260;61791;-54
2023/05/10 00:55:26;;;;;;;3.10;1.00;;;;;;;7.06;100.00;100832.55;105226;1257;62814;-59
2023/05/10 00:57:53;;;;;;;2.80;1.20;;;;;;;7.06;100.00;100834.63;105011;1262;74800;-54
2023/05/10 01:00:20;;;;;;;3.10;1.30;;;;;;;7.07;100.00;100832.81;105085;1265;69271;-54
2023/05/10 01:02:49;;;;;;;2.50;1.30;;;;;;;7.07;100.00;100827.30;104964;1259;75129;-55
2023/05/10 01:05:17;;;;;;;2.80;1.10;;;;;;;7.06;100.00;100827.05;104974;1265;61833;-54
2023/05/10 01:07:44;;;;;;;2.50;1.10;;;;;;;7.04;100.00;100828.91;104917;1256;62703;-54
2023/05/10 01:10:11;;;;;;;3.60;1.00;;;;;;;7.03;100.00;100826.95;104929;1257;75467;-54
2023/05/10 01:12:40;;;;;;;4.70;1.60;;;;;;;7.04;100.00;100826.55;104898;1260;69629;-55
2023/05/10 01:15:08;;;;;;;3.10;1.50;;;;;;;7.03;100.00;100823.83;104993;1262;75653;-54
2023/05/10 01:17:35;;;;;;;2.20;1.00;;;;;;;7.03;100.00;100822.11;105279;1260;62857;-55
2023/05/10 01:20:03;;;;;;;2.60;1.40;;;;;;;7.04;100.00;100819.76;104647;1267;61433;-54
2023/05/10 01:23:19;;;;;;;4.10;1.70;;;;;;;7.05;100.00;100817.09;104989;1263;76011;-55
2023/05/10 01:26:14;;;;;;;2.30;1.00;;;;;;;7.03;100.00;100814.91;104505;1259;69311;-54
2023/05/10 01:28:59;;;;;;;2.80;1.40;;;;;;;7.01;100.00;100815.95;105036;1260;75570;-54
2023/05/10 01:31:54;;;;;;;4.50;1.10;;;;;;;7.01;100.00;100814.93;104919;1264;61624;-54
2023/05/10 01:34:27;;;;;;;2.30;1.20;;;;;;;6.98;100.00;100813.29;104845;1264;61561;-53
2023/05/10 01:36:59;;;;;;;3.80;1.00;;;;;;;6.97;100.00;100813.04;104921;1265;76676;-53
2023/05/10 01:39:32;;;;;;;2.80;1.20;;;;;;;6.96;100.00;100814.33;104974;1265;68470;-58
2023/05/10 01:42:10;;;;;;;2.50;1.10;;;;;;;6.96;100.00;100815.59;105118;1259;75287;-54
2023/05/10 01:44:40;;;;;;;2.00;0.90;;;;;;;6.96;100.00;100812.96;104926;1262;63721;-56
2023/05/10 01:47:08;;;;;;;2.80;1.10;;;;;;;6.97;100.00;100812.55;104867;1262;62785;-56
2023/05/10 01:49:40;;;;;;;2.80;1.00;;;;;;;6.98;100.00;100814.84;105027;1264;76420;-54
2023/05/10 01:52:10;;;;;;;2.80;1.00;;;;;;;6.99;100.00;100813.52;104901;1257;69745;-55
2023/05/10 01:54:38;;;;;;;3.70;1.50;;;;;;;7.01;100.00;100813.54;104928;1263;75636;-55
2023/05/10 01:57:08;;;;;;;3.80;1.20;;;;;;;7.03;100.00;100817.31;105134;1262;62102;-54
2023/05/10 01:59:36;;;;;;;2.60;1.20;;;;;;;7.03;100.00;100814.69;105318;1257;62827;-58
2023/05/10 02:02:04;;;;;;;2.40;1.20;;;;;;;7.03;100.00;100814.52;104982;1257;75196;-55
2023/05/10 02:04:31;;;;;;;3.20;1.30;;;;;;;7.04;100.00;100810.64;104675;1265;69593;-53
2023/05/10 02:06:58;;;;;;;4.30;1.30;;;;;;;7.02;100.00;100812.00;105014;1263;75221;-53
2023/05/10 02:09:25;;;;;;;2.50;1.20;;;;;;;7.02;100.00;100811.71;104828;1265;61092;-54
2023/05/10 02:11:53;;;;;;;2.10;1.00;;;;;;;7.02;100.00;100814.42;105048;1263;61683;-57
2023/05/10 02:14:20;;;;;;;3.20;1.40;;;;;;;7.03;100.00;100815.02;104876;1263;76273;-54
2023/05/10 02:16:47;;;;;;;2.90;1.30;;;;;;;7.04;100.00;100810.95;104716;1263;68388;-54
2023/05/10 02:19:14;;;;;;;2.70;1.10;;;;;;;7.06;100.00;100809.21;104788;1266;75182;-54
2023/05/10 02:21:41;;;;;;;3.20;1.10;;;;;;;7.05;100.00;100807.91;104983;1265;61654;-53
2023/05/10 02:24:09;;;;;;;2.30;1.10;;;;;;;7.06;100.00;100807.30;104938;1265;62628;-60
2023/05/10 02:26:36;;;;;;;2.70;1.30;;;;;;;7.07;100.00;100806.73;105138;1262;76366;-58
2023/05/10 02:29:03;;;;;;;2.60;1.20;;;;;;;7.09;100.00;100805.39;104933;1263;69338;-56
2023/05/10 02:31:33;;;;;;;3.50;1.20;;;;;;;7.11;100.00;100802.95;105176;1262;75224;-56
2023/05/10 02:34:01;;;;;;;3.20;1.40;;;;;;;7.12;100.00;100799.52;104922;1263;62135;-56
2023/05/10 02:36:28;;;;;;;3.30;2.00;;;;;;;7.13;100.00;100796.52;104858;1262;62097;-56
2023/05/10 02:38:56;;;;;;;16.70;10.40;;;;;;;7.14;100.00;100797.99;105072;1263;76692;-55
2023/05/10 02:41:23;;;;;;;5.40;3.00;;;;;;;7.14;100.00;100797.77;104861;1266;68365;-56
2023/05/10 02:43:51;;;;;;;8.90;4.40;;;;;;;7.14;100.00;100799.13;105026;1263;75077;-55
2023/05/10 02:46:18;;;;;;;3.70;1.70;;;;;;;7.16;100.00;100802.83;104679;1259;62229;-56
2023/05/10 02:48:46;;;;;;;3.30;1.30;;;;;;;7.14;100.00;100806.38;104934;1262;61534;-56
2023/05/10 02:51:14;;;;;;;2.10;1.00;;;;;;;7.14;100.00;100807.45;105022;1256;76420;-56
2023/05/10 02:53:41;;;;;;;3.00;1.20;;;;;;;7.13;100.00;100811.05;105012;1264;69539;-57
2023/05/10 02:56:24;;;;;;;3.80;1.10;;;;;;;7.12;100.00;100811.46;105010;1263;75587;-54
2023/05/10 02:58:52;;;;;;;3.00;1.10;;;;;;;7.10;100.00;100811.47;104871;1271;61536;-54
2023/05/10 03:01:19;;;;;;;3.90;1.00;;;;;;;7.08;100.00;100812.48;104945;1263;63196;-54
2023/05/10 03:03:46;;;;;;;2.50;1.20;;;;;;;7.07;100.00;100813.60;104957;1263;76379;-54
2023/05/10 03:06:14;;;;;;;3.00;1.20;;;;;;;7.07;100.00;100815.71;105219;1264;69384;-58
2023/05/10 03:08:41;;;;;;;4.20;1.30;;;;;;;7.06;100.00;100818.39;104855;1263;73671;-55
2023/05/10 03:11:48;;;;;;;2.80;1.20;;;;;;;7.05;100.00;100814.69;105133;1257;61986;-55
2023/05/10 03:14:33;;;;;;;5.70;3.40;;;;;;;7.05;100.00;100810.19;105175;1265;61761;-54
2023/05/10 03:17:11;;;;;;;4.20;1.20;;;;;;;7.07;100.00;100815.05;105071;1265;75633;-55
2023/05/10 03:19:53;;;;;;;2.40;0.90;;;;;;;7.10;100.00;100816.48;104895;1263;69712;-59
2023/05/10 03:22:44;;;;;;;12.80;4.80;;;;;;;7.13;100.00;100815.35;105238;1265;75409;-57
2023/05/10 03:25:11;;;;;;;;;;;;;;;7.17;100.00;100813.23;104671;1266;60896;-56
2023/05/10 03:27:40;;;;;;;2.80;1.30;;;;;;;7.22;100.00;100817.96;106084;1257;62573;-55
2023/05/10 03:30:08;;;;;;;2.80;1.20;;;;;;;7.27;100.00;100817.42;104979;1264;76342;-55
2023/05/10 03:32:36;;;;;;;3.30;1.00;;;;;;;7.32;100.00;100816.77;105071;1263;69640;-53
2023/05/10 03:35:10;;;;;;;4.90;2.40;;;;;;;7.39;100.00;100818.02;104872;1257;74668;-53
2023/05/10 03:37:37;;;;;;;30.50;15.30;;;;;;;7.45;100.00;100821.05;104873;1267;61552;-53
2023/05/10 03:40:05;;;;;;;47.00;20.50;;;;;;;7.50;100.00;100820.69;104601;1266;62333;-54
2023/05/10 03:42:34;;;;;;;14.10;6.50;;;;;;;7.57;100.00;100820.27;104983;1264;75112;-54
2023/05/10 03:45:01;;;;;;;6.10;2.90;;;;;;;7.63;100.00;100820.92;105039;1258;69609;-58
2023/05/10 03:47:29;;;;;;;35.80;18.70;;;;;;;7.67;100.00;100823.27;104921;1263;75131;-54
2023/05/10 03:49:57;;;;;;;28.80;14.60;;;;;;;7.71;100.00;100823.69;104924;1259;63436;-54
2023/05/10 03:52:25;;;;;;;35.00;18.00;;;;;;;7.76;100.00;100823.75;105174;1257;61608;-58
2023/05/10 03:54:52;;;;;;;30.10;15.70;;;;;;;7.82;100.00;100824.86;105072;1257;74792;-53
2023/05/10 03:57:19;;;;;;;42.50;25.40;;;;;;;7.86;100.00;100823.44;105005;1263;69623;-58
2023/05/10 03:59:46;;;;;;;26.00;13.90;;;;;;;7.91;100.00;100823.96;104717;1263;74904;-54
2023/05/10 04:02:13;;;;;;;6.30;2.70;;;;;;;7.96;100.00;100817.39;104961;1270;61530;-54
2023/05/10 04:04:41;;;;;;;9.50;3.90;;;;;;;7.99;100.00;100818.48;104995;1258;62896;-54
2023/05/10 04:07:09;;;;;;;22.10;17.30;;;;;;;8.02;100.00;100819.38;105009;1258;75951;-57
2023/05/10 04:09:36;;;;;;;11.70;8.80;;;;;;;8.06;100.00;100821.08;104747;1263;70060;-54
2023/05/10 04:12:04;;;;;;;13.00;10.50;;;;;;;8.12;100.00;100818.96;105004;1262;75485;-54
2023/05/10 04:14:31;;;;;;;6.10;3.20;;;;;;;8.22;100.00;100820.39;104909;1263;62909;-56
2023/05/10 04:16:58;;;;;;;5.90;3.60;;;;;;;8.34;100.00;100819.86;104693;1262;62791;-56
2023/05/10 04:19:30;;;;;;;4.50;3.10;;;;;;;8.46;100.00;100814.32;105055;1263;76176;-57
2023/05/10 04:21:57;;;;;;;3.50;2.00;;;;;;;8.58;100.00;100813.89;104964;1273;69535;-54
2023/05/10 04:24:24;;;;;;;6.20;1.60;;;;;;;8.65;100.00;100810.72;105013;1262;74127;-54
2023/05/10 04:26:52;;;;;;;3.60;1.40;;;;;;;8.69;100.00;100808.57;104941;1271;63135;-54
2023/05/10 04:29:19;;;;;;;2.50;1.00;;;;;;;8.69;100.00;100805.23;104707;1257;61525;-55
2023/05/10 04:31:46;;;;;;;2.20;1.00;;;;;;;8.72;100.00;100808.20;104719;1257;75126;-54
2023/05/10 04:34:13;;;;;;;3.30;1.50;;;;;;;8.77;100.00;100804.95;104816;1262;68527;-55
2023/05/10 04:36:40;;;;;;;4.60;1.70;;;;;;;8.80;100.00;100805.48;105084;1263;74907;-60
2023/05/10 04:39:08;;;;;;;5.60;1.20;;;;;;;8.87;100.00;100808.45;104930;1264;63146;-55
2023/05/10 04:41:37;;;;;;;3.00;0.90;;;;;;;8.94;100.00;100808.67;104916;1264;62143;-55
2023/05/10 04:44:04;;;;;;;3.40;1.10;;;;;;;8.95;100.00;100804.59;105072;1261;76486;-54
2023/05/10 04:46:32;;;;;;;4.40;1.60;;;;;;;8.98;100.00;100806.05;104722;1264;69431;-54
2023/05/10 04:48:59;;;;;;;2.90;1.30;;;;;;;8.97;100.00;100808.73;104956;1263;73837;-54
2023/05/10 04:51:26;;;;;;;3.00;1.30;;;;;;;8.97;100.00;100804.44;105182;1263;62892;-58
2023/05/10 04:53:53;;;;;;;3.20;1.20;;;;;;;8.94;100.00;100806.95;104770;1258;62870;-55
2023/05/10 04:56:32;;;;;;;2.10;0.90;;;;;;;8.91;100.00;100802.68;104851;1257;75167;-58
2023/05/10 04:58:59;;;;;;;3.70;1.70;;;;;;;8.90;100.00;100802.38;104992;1258;69501;-55
2023/05/10 05:01:26;;;;;;;2.10;1.10;;;;;;;8.95;100.00;100802.92;104667;1263;75575;-58
2023/05/10 05:03:53;;;;;;;2.00;0.90;;;;;;;9.09;100.00;100804.77;105051;1262;61963;-55
2023/05/10 05:06:21;;;;;;;4.00;1.90;;;;;;;9.28;100.00;100806.73;105120;1263;63076;-58
2023/05/10 05:08:49;;;;;;;2.60;1.20;;;;;;;9.46;100.00;100805.85;105025;1262;76305;-56
2023/05/10 05:11:20;;;;;;;3.50;1.30;;;;;;;9.80;100.00;100799.98;105173;1257;69887;-56
2023/05/10 05:13:47;;;;;;;2.60;1.50;;;;;;;10.30;100.00;100797.27;104764;1264;74336;-55
2023/05/10 05:16:14;;;;;;;6.80;2.30;;;;;;;10.78;100.00;100790.70;105190;1263;62568;-58
2023/05/10 05:18:42;;;;;;;2.70;1.30;;;;;;;11.15;100.00;100787.09;104813;1257;61966;-54
2023/05/10 05:21:16;;;;;;;3.10;1.20;;;;;;;11.43;100.00;100784.59;104999;1264;76160;-54
2023/05/10 05:23:43;;;;;;;2.10;0.90;;;;;;;11.83;100.00;100781.86;104920;1263;68559;-54
2023/05/10 05:26:10;;;;;;;5.60;3.80;;;;;;;12.44;100.00;100781.91;104740;1265;74625;-54
2023/05/10 05:28:38;;;;;;;5.70;3.20;;;;;;;13.14;100.00;100777.31;104743;1257;62873;-56
2023/05/10 05:31:05;;;;;;;9.10;5.30;;;;;;;13.76;100.00;100776.14;104953;1257;61750;-55
2023/05/10 05:33:33;;;;;;;5.10;2.50;;;;;;;14.16;100.00;100770.99;105294;1261;76079;-58
2023/05/10 05:36:01;;;;;;;11.60;8.50;;;;;;;14.64;100.00;100769.48;104748;1257;70095;-55
2023/05/10 05:38:28;;;;;;;3.10;1.20;;;;;;;15.18;100.00;100766.58;104830;1265;75020;-59
2023/05/10 05:40:56;;;;;;;1.60;0.80;;;;;;;15.77;99.39;100760.29;104809;1264;61436;-56
2023/05/10 05:43:23;;;;;;;4.90;1.00;;;;;;;16.32;89.96;100763.02;105178;1257;61460;-55
2023/05/10 05:45:52;;;;;;;5.20;1.60;;;;;;;16.68;77.75;100756.46;104951;1257;76159;-55
2023/05/10 05:48:20;;;;;;;2.30;0.60;;;;;;;16.82;67.16;100749.73;104974;1264;69619;-58
2023/05/10 05:50:47;;;;;;;1.70;0.90;;;;;;;16.76;63.40;100745.88;104882;1262;75451;-54
2023/05/10 05:53:14;;;;;;;1.80;0.60;;;;;;;16.84;61.38;100747.12;105057;1261;61732;-55
2023/05/10 05:55:52;;;;;;;2.50;1.10;;;;;;;16.95;57.73;100743.70;104991;1258;62751;-53
2023/05/10 05:58:20;;;;;;;2.70;1.00;;;;;;;17.27;56.27;100738.23;105119;1263;75032;-54
2023/05/10 06:00:47;;;;;;;4.50;1.00;;;;;;;17.70;56.27;100727.96;105037;1262;69261;-58
2023/05/10 06:03:14;;;;;;;3.20;0.80;;;;;;;18.30;53.52;100725.45;104719;1257;75370;-54
2023/05/10 06:05:41;;;;;;;1.70;0.70;;;;;;;18.95;50.47;100722.27;104598;1263;487310;-54
2023/05/10 06:08:08;;;;;;;3.00;0.70;;;;;;;19.45;45.20;100723.84;105095;1257;63341;-55
2023/05/10 06:10:36;;;;;;;4.50;1.20;;;;;;;19.60;43.46;100718.20;105007;1263;76252;-59
2023/05/10 06:13:03;;;;;;;2.50;0.80;;;;;;;19.49;42.62;100719.38;104922;1263;69509;-55
2023/05/10 06:15:30;;;;;;;5.50;1.60;;;;;;;19.31;43.44;100720.30;104899;1257;74982;-55
2023/05/10 06:17:57;;;;;;;3.40;1.70;;;;;;;19.26;41.72;100721.88;104898;1263;61855;-54
2023/05/10 06:20:25;;;;;;;6.00;2.60;;;;;;;18.89;41.34;100720.67;105017;1258;63069;-55
2023/05/10 06:22:52;;;;;;;11.90;4.50;;;;;;;18.27;40.88;100718.97;105149;1258;75997;-58
2023/05/10 06:25:19;;;;;;;2.90;1.50;;;;;;;17.43;42.60;100720.77;105089;1260;68568;-55
2023/05/10 06:27:46;;;;;;;4.10;1.40;;;;;;;16.68;43.92;100725.54;105058;1257;75072;-55
2023/05/10 06:30:19;;;;;;;6.50;1.20;;;;;;;16.00;46.77;100729.66;105232;1261;61866;-57
2023/05/10 06:32:47;;;;;;;5.40;1.80;;;;;;;15.51;48.16;100728.88;105392;1264;63092;-60
2023/05/10 06:35:14;;;;;;;7.60;2.10;;;;;;;15.02;51.89;100728.75;105046;1257;76122;-54
2023/05/10 06:37:41;;;;;;;5.70;1.60;;;;;;;14.70;53.21;100721.71;105261;1257;69712;-56
2023/05/10 06:40:09;;;;;;;6.90;2.30;;;;;;;14.62;57.66;100725.05;105445;1258;75232;-59
2023/05/10 06:42:36;;;;;;;5.70;2.20;;;;;;;14.67;56.32;100722.72;105089;1263;61241;-55
2023/05/10 06:45:04;;;;;;;3.80;1.30;;;;;;;14.72;59.80;100728.02;105294;1263;61633;-56
2023/05/10 06:47:31;;;;;;;6.10;1.00;;;;;;;14.75;57.91;100723.95;105223;1260;75291;-56
2023/05/10 06:49:59;;;;;;;2.80;1.10;;;;;;;14.53;58.22;100724.47;105281;1263;68506;-59
2023/05/10 06:52:26;;;;;;;3.20;1.10;;;;;;;14.11;62.98;100726.20;105298;1261;75444;-54
2023/05/10 06:54:53;;;;;;;2.70;1.00;;;;;;;13.73;67.06;100734.13;105327;1261;61740;-56
2023/05/10 06:57:21;;;;;;;2.40;0.80;;;;;;;13.38;70.56;100737.58;105178;1258;61451;-54
2023/05/10 06:59:58;;;;;;;5.70;0.90;;;;;;;12.99;73.80;100739.02;105310;1263;76085;-59
2023/05/10 07:02:26;;;;;;;4.90;2.50;;;;;;;12.63;83.04;100744.73;105328;1257;69379;-56
2023/05/10 07:04:53;;;;;;;3.50;1.10;;;;;;;12.59;88.18;100743.52;105389;1259;74918;-59
2023/05/10 07:07:21;;;;;;;4.30;1.60;;;;;;;12.72;86.61;100741.85;105135;1257;62680;-56
2023/05/10 07:09:49;;;;;;;3.00;1.00;;;;;;;12.87;87.57;100740.15;105653;1260;62793;-60
2023/05/10 07:12:16;;;;;;;3.80;1.50;;;;;;;13.03;88.42;100739.91;105189;1259;76861;-56
2023/05/10 07:14:44;;;;;;;3.10;1.30;;;;;;;13.12;86.72;100739.54;105213;1264;68233;-54
2023/05/10 07:17:11;;;;;;;3.10;1.20;;;;;;;13.18;85.23;100738.44;105171;1261;75412;-55
2023/05/10 07:19:38;;;;;;;1.70;1.00;;;;;;;13.32;82.99;100732.70;105231;1262;61738;-54
2023/05/10 07:22:05;;;;;;;5.40;1.20;;;;;;;13.36;80.67;100732.70;105053;1259;61109;-54
2023/05/10 07:24:33;;;;;;;5.40;1.40;;;;;;;13.45;76.92;100727.61;105251;1257;75232;-54
2023/05/10 07:27:00;;;;;;;1.90;0.80;;;;;;;13.52;76.83;100727.48;105190;1258;67521;-59
2023/05/10 07:29:28;;;;;;;2.70;0.90;;;;;;;13.62;80.26;100730.95;104788;1263;73758;-54
2023/05/10 07:31:55;;;;;;;2.30;1.00;;;;;;;13.65;73.49;100731.74;105052;1257;62931;-55
2023/05/10 07:34:25;;;;;;;2.00;0.90;;;;;;;13.36;69.21;100724.55;105092;1261;62964;-55
2023/05/10 07:36:52;;;;;;;2.80;0.80;;;;;;;12.96;75.59;100732.15;105130;1262;76435;-59
2023/05/10 07:39:20;;;;;;;4.80;0.90;;;;;;;12.70;84.29;100733.77;104922;1257;69660;-55
2023/05/10 07:41:55;;;;;;;2.90;0.90;;;;;;;12.46;86.61;100741.63;105165;1257;75083;-55
2023/05/10 07:44:22;;;;;;;3.30;1.10;;;;;;;12.22;84.97;100742.11;105161;1263;61723;-55
2023/05/10 07:46:49;;;;;;;3.20;1.20;;;;;;;11.97;87.31;100742.33;105178;1258;62835;-56
2023/05/10 07:49:16;;;;;;;1.80;0.70;;;;;;;11.81;88.30;100743.14;105001;1263;76351;-55
2023/05/10 07:51:43;;;;;;;4.50;1.20;;;;;;;11.76;90.86;100744.75;104696;1257;68370;-55
2023/05/10 07:54:11;;;;;;;2.70;1.10;;;;;;;11.79;93.81;100741.05;104966;1264;75444;-55
2023/05/10 07:56:39;;;;;;;4.60;0.80;;;;;;;11.81;90.98;100738.81;105006;1264;62879;-55
2023/05/10 07:59:06;;;;;;;2.60;0.80;;;;;;;11.77;93.72;100739.37;105084;1258;62872;-58
2023/05/10 08:01:37;;;;;;;3.30;1.00;;;;;;;11.73;91.72;100732.08;104607;1257;75995;-56
2023/05/10 08:04:04;;;;;;;4.70;1.30;;;;;;;11.73;95.56;100734.84;104980;1257;69878;-55
2023/05/10 08:06:31;;;;;;;4.60;2.10;;;;;;;11.85;99.04;100733.27;105010;1258;75182;-55
2023/05/10 08:08:58;;;;;;;2.70;1.30;;;;;;;12.15;99.51;100730.98;104980;1263;61718;-55
2023/05/10 08:11:27;;;;;;;2.80;0.80;;;;;;;12.43;90.72;100735.81;104965;1258;61500;-56
2023/05/10 08:13:54;;;;;;;3.80;1.40;;;;;;;12.50;87.65;100731.91;104990;1258;75234;-55
2023/05/10 08:16:21;;;;;;;2.30;0.90;;;;;;;12.47;91.94;100737.11;104805;1262;69599;-55
2023/05/10 08:18:50;;;;;;;3.50;1.00;;;;;;;12.50;89.59;100741.15;104984;1260;75530;-54
2023/05/10 08:21:18;;;;;;;2.80;0.80;;;;;;;12.49;84.75;100734.14;105275;1258;63045;-59
2023/05/10 08:23:45;;;;;;;2.20;1.00;;;;;;;12.41;82.73;100737.83;104925;1262;61598;-60
2023/05/10 08:26:12;;;;;;;3.40;1.10;;;;;;;12.29;82.21;100735.04;104716;1262;76627;-55
2023/05/10 08:28:40;;;;;;;2.50;0.80;;;;;;;12.20;84.11;100735.57;105050;1257;69595;-55
2023/05/10 08:31:07;;;;;;;7.60;2.00;;;;;;;12.18;82.70;100734.05;104948;1261;74338;-57
2023/05/10 08:33:34;;;;;;;2.30;0.90;;;;;;;12.21;85.53;100730.48;104716;1261;61851;-55
2023/05/10 08:36:01;;;;;;;2.00;0.90;;;;;;;12.39;87.82;100731.77;105155;1258;62559;-55
2023/05/10 08:38:28;;;;;;;1.80;0.80;;;;;;;12.63;87.61;100726.67;105002;1258;76329;-54
2023/05/10 08:40:59;;;;;;;1.70;0.90;;;;;;;12.76;83.56;100725.76;105037;1259;69571;-55
2023/05/10 08:43:28;;;;;;;3.10;1.00;;;;;;;12.85;84.18;100722.79;105007;1263;73956;-55
2023/05/10 08:45:56;;;;;;;1.30;0.60;;;;;;;12.94;80.36;100720.90;105246;1264;62711;-59
2023/05/10 08:48:24;;;;;;;1.90;1.10;;;;;;;12.86;78.08;100718.73;105188;1258;61791;-55
2023/05/10 08:50:54;;;;;;;2.50;0.90;;;;;;;12.75;80.77;100720.30;105051;1260;76264;-55
2023/05/10 08:53:22;;;;;;;3.20;1.00;;;;;;;12.68;82.13;100714.52;105231;1264;68756;-56
2023/05/10 08:55:49;;;;;;;2.80;1.00;;;;;;;12.63;84.57;100714.11;105590;1261;73186;-59
2023/05/10 08:58:17;;;;;;;3.80;1.10;;;;;;;12.59;81.87;100711.48;105202;1259;61606;-55
2023/05/10 09:00:44;;;;;;;5.50;1.30;;;;;;;12.56;85.01;100714.64;105192;1261;62685;-55
2023/05/10 09:03:12;;;;;;;3.90;1.10;;;;;;;12.59;82.66;100709.16;105363;1258;75341;-58
2023/05/10 09:05:39;;;;;;;3.30;0.70;;;;;;;12.64;81.86;100709.73;104970;1261;68500;-55
2023/05/10 09:08:06;;;;;;;3.60;1.00;;;;;;;12.68;77.78;100706.19;105029;1265;74990;-56
2023/05/10 09:10:33;;;;;;;4.20;0.90;;;;;;;12.64;76.99;100707.52;105332;1258;62719;-56
2023/05/10 09:13:00;;;;;;;1.60;1.00;;;;;;;12.53;73.22;100703.90;105245;1260;61497;-55
2023/05/10 09:15:27;;;;;;;2.40;1.00;;;;;;;12.36;78.52;100705.36;105347;1263;76042;-55
2023/05/10 09:17:54;;;;;;;1.90;1.20;;;;;;;12.28;82.78;100708.92;105054;1262;69661;-55
2023/05/10 09:20:22;;;;;;;3.10;0.90;;;;;;;12.25;83.64;100711.42;105264;1263;75202;-56
2023/05/10 09:22:49;;;;;;;6.80;0.90;;;;;;;12.24;83.09;100710.60;105288;1259;60966;-57
2023/05/10 09:25:16;;;;;;;3.90;1.00;;;;;;;12.13;87.74;100711.45;105447;1258;62827;-57
2023/05/10 09:27:45;;;;;;;2.00;0.80;;;;;;;12.03;90.16;100709.21;105178;1259;76262;-56
2023/05/10 09:30:17;;;;;;;4.60;1.60;;;;;;;11.97;89.83;100710.70;105357;1263;68292;-55
2023/05/10 09:32:47;;;;;;;3.90;1.30;;;;;;;11.92;91.41;100707.70;105136;1260;75276;-56
2023/05/10 09:35:15;;;;;;;2.60;0.90;;;;;;;11.96;90.54;100706.47;105402;1262;62944;-60
2023/05/10 09:37:44;;;;;;;3.60;1.10;;;;;;;12.00;88.85;100709.77;105507;1258;63168;-61
2023/05/10 09:40:18;;;;;;;2.00;0.90;;;;;;;12.01;89.97;100709.14;104647;1257;76225;-56
2023/05/10 09:43:06;;;;;;;3.70;1.10;;;;;;;11.98;87.82;100704.45;104814;1258;69382;-57
2023/05/10 09:45:34;;;;;;;1.70;0.70;;;;;;;11.98;87.47;100703.73;105167;1260;75481;-60
2023/05/10 09:48:04;;;;;;;3.20;1.50;;;;;;;12.03;90.29;100705.48;104983;1263;61815;-57
2023/05/10 09:50:32;;;;;;;3.80;1.10;;;;;;;12.04;90.22;100701.03;105210;1260;62024;-57
2023/05/10 09:53:00;;;;;;;3.10;0.90;;;;;;;12.14;92.45;100697.70;105172;1258;76248;-57
2023/05/10 09:55:49;;;;;;;4.00;1.10;;;;;;;12.29;94.65;100693.66;105345;1258;69684;-58
2023/05/10 09:58:16;;;;;;;3.80;1.20;;;;;;;12.58;94.61;100690.27;104979;1258;75145;-55
2023/05/10 10:00:44;;;;;;;3.90;1.20;;;;;;;12.89;90.77;100685.14;105230;1259;63327;-56
2023/05/10 10:03:15;;;;;;;2.80;1.10;;;;;;;13.16;85.00;100682.20;105623;1263;61345;-60
2023/05/10 10:05:43;;;;;;;2.80;0.90;;;;;;;13.30;81.71;100679.80;105151;1263;75522;-53
2023/05/10 10:08:11;;;;;;;2.90;1.40;;;;;;;13.42;74.41;100676.34;105365;1260;68606;-54
2023/05/10 10:10:40;;;;;;;3.80;1.60;;;;;;;13.56;70.85;100678.20;105213;1264;74180;-55
2023/05/10 10:13:07;;;;;;;2.90;1.10;;;;;;;13.70;70.67;100678.80;105373;1257;62790;-55
2023/05/10 10:15:35;;;;;;;2.10;0.70;;;;;;;13.73;66.23;100674.14;105014;1259;63161;-55
2023/05/10 10:18:03;;;;;;;3.20;1.20;;;;;;;13.65;62.84;100678.33;105310;1263;76320;-56
2023/05/10 10:20:31;;;;;;;4.50;1.50;;;;;;;13.59;62.38;100679.44;105315;1259;68156;-57
2023/05/10 10:22:58;;;;;;;2.90;1.20;;;;;;;13.56;62.94;100672.96;105337;1259;73884;-62
2023/05/10 10:25:26;;;;;;;3.70;1.40;;;;;;;13.62;65.41;100671.59;105015;1259;61349;-56
2023/05/10 10:27:53;;;;;;;3.00;0.90;;;;;;;13.67;64.65;100674.06;105265;1259;62897;-56
2023/05/10 10:30:36;;;;;;;1.90;0.90;;;;;;;13.67;64.85;100674.77;105348;1257;74461;-61
2023/05/10 10:33:22;;;;;;;2.70;1.10;;;;;;;13.76;63.73;100674.56;105008;1258;69179;-57
2023/05/10 10:35:55;;;;;;;3.30;1.20;;;;;;;13.82;60.25;100672.50;105110;1262;73946;-56
2023/05/10 10:38:22;;;;;;;4.40;1.40;;;;;;;13.77;54.57;100667.57;105132;1264;61765;-54
2023/05/10 10:41:09;;;;;;;4.30;1.20;;;;;;;13.65;56.14;100670.16;105122;1259;62741;-54
2023/05/10 10:43:36;;;;;;;3.60;1.10;;;;;;;13.56;59.49;100668.69;104697;1260;76022;-60
2023/05/10 10:46:13;;;;;;;2.50;0.80;;;;;;;13.55;58.36;100666.02;104993;1264;69795;-55
2023/05/10 10:49:07;;;;;;;6.20;1.20;;;;;;;13.40;57.31;100665.89;104987;1259;73808;-55
2023/05/10 10:51:37;;;;;;;2.10;0.90;;;;;;;13.21;58.08;100659.51;104775;1259;61653;-59
2023/05/10 10:54:11;;;;;;;2.90;0.80;;;;;;;13.12;59.45;100660.70;105054;1257;61784;-58
2023/05/10 10:56:38;;;;;;;2.60;1.30;;;;;;;13.13;60.84;100665.21;104946;1257;75486;-55
2023/05/10 10:59:05;;;;;;;2.30;0.80;;;;;;;13.08;61.51;100667.95;105023;1258;69499;-60
2023/05/10 11:01:34;;;;;;;7.30;1.10;;;;;;;13.01;64.30;100665.36;104775;1263;74098;-55
2023/05/10 11:04:04;;;;;;;3.10;0.80;;;;;;;13.02;66.64;100668.15;104908;1264;62240;-54
2023/05/10 11:06:33;;;;;;;2.70;1.00;;;;;;;13.06;64.98;100664.07;105029;1263;61824;-53
2023/05/10 11:09:08;;;;;;;3.90;0.80;;;;;;;12.99;63.15;100666.67;104951;1262;75014;-54
2023/05/10 11:11:35;;;;;;;3.50;1.10;;;;;;;12.84;66.41;100669.69;104971;1257;69805;-54
2023/05/10 11:14:04;;;;;;;3.80;1.30;;;;;;;12.79;67.68;100667.34;104929;1264;74768;-59
2023/05/10 11:16:44;;;;;;;3.10;0.90;;;;;;;12.83;67.32;100665.98;104984;1264;63289;-54
2023/05/10 11:19:13;;;;;;;4.70;1.40;;;;;;;12.89;66.71;100661.89;105169;1263;63034;-55
2023/05/10 11:21:48;;;;;;;3.70;1.10;;;;;;;12.98;68.47;100659.94;104852;1259;76484;-54
2023/05/10 11:24:18;;;;;;;4.60;1.00;;;;;;;13.09;67.60;100659.30;105156;1258;68589;-55
2023/05/10 11:26:45;;;;;;;4.40;0.70;;;;;;;13.13;66.75;100659.58;105113;1257;74941;-54